Terminal Aerodrome Forecast
Issued by NWS

Home | Current Version | Previous Version | Text Only | Print | Product List | Glossary On
Versions: 1 2 3 4 5 6 7 8 9 10 11 12
987
FTUS44 KTSA 111120
TAFXNA
TAF
KXNA 111120Z 1112/1212 21005KT P6SM SKC
     FM111500 24010KT P6SM SKC
     FM111900 29015G23KT P6SM FEW250
     FM120000 33013G21KT P6SM SCT050=

USA.gov is the U.S. government's official web portal to all federal, state and local government web resources and services.